createdAt,value
2019-03-27T00:00:54.476Z,10.70
2019-03-27T00:02:58.412Z,10.30
2019-03-27T00:03:58.313Z,10.10
2019-03-27T00:06:02.322Z,10.60
2019-03-27T00:07:02.246Z,10.30
2019-03-27T00:09:06.232Z,10.40
2019-03-27T00:10:06.133Z,10.60
2019-03-27T00:12:10.094Z,10.70
2019-03-27T00:13:10.055Z,10.80
2019-03-27T00:15:14.065Z,10.90
2019-03-27T00:16:13.953Z,11.30
2019-03-27T00:18:17.962Z,10.70
2019-03-27T00:19:17.876Z,10.70
2019-03-27T00:21:21.880Z,11.30
2019-03-27T00:22:21.775Z,10.90
2019-03-27T00:24:25.782Z,10.60
2019-03-27T00:25:25.684Z,11.30
2019-03-27T00:27:29.700Z,11.20
2019-03-27T00:28:29.593Z,11.60
2019-03-27T00:30:33.602Z,11.40
2019-03-27T00:31:33.504Z,11.20
2019-03-27T00:33:37.512Z,11.40
2019-03-27T00:34:37.482Z,11.50
2019-03-27T00:36:30.362Z,11.80
2019-03-27T00:37:30.274Z,11.90
2019-03-27T00:39:34.272Z,12.10
2019-03-27T00:40:34.180Z,11.50
2019-03-27T00:42:38.205Z,12.00
2019-03-27T00:43:38.111Z,12.20
2019-03-27T00:45:42.034Z,11.70
2019-03-27T00:46:42.000Z,12.20
2019-03-27T00:48:46.018Z,12.50
2019-03-27T00:49:45.910Z,12.70
2019-03-27T00:51:49.911Z,12.40
2019-03-27T00:52:49.820Z,12.40
2019-03-27T00:54:53.829Z,12.00
2019-03-27T00:55:53.734Z,12.90
2019-03-27T00:57:57.731Z,11.70
2019-03-27T00:58:57.640Z,11.60
2019-03-27T01:01:01.762Z,11.80
2019-03-27T01:02:01.650Z,12.70
2019-03-27T01:04:05.659Z,12.60
2019-03-27T01:05:05.560Z,12.30
2019-03-27T01:06:58.522Z,12.40
2019-03-27T01:07:58.483Z,12.40
2019-03-27T01:10:02.432Z,12.40
2019-03-27T01:11:02.320Z,12.50
2019-03-27T01:13:06.330Z,12.60
2019-03-27T01:14:06.232Z,12.60
2019-03-27T01:16:10.240Z,13.00
2019-03-27T01:17:10.171Z,12.50
2019-03-27T01:19:14.101Z,12.90
2019-03-27T01:20:14.050Z,13.20
2019-03-27T01:22:18.063Z,13.40
2019-03-27T01:23:17.959Z,12.80
2019-03-27T01:25:22.841Z,13.60
2019-03-27T01:26:22.862Z,13.20
2019-03-27T01:28:27.719Z,13.80
2019-03-27T01:29:27.631Z,14.20
2019-03-27T01:31:32.550Z,13.20
2019-03-27T01:32:32.450Z,14.20
2019-03-27T01:34:37.391Z,12.70
2019-03-27T01:35:37.280Z,13.10
2019-03-27T01:37:42.210Z,13.70
2019-03-27T01:38:42.121Z,13.30
2019-03-27T01:40:47.054Z,13.30
2019-03-27T01:41:46.952Z,13.60
2019-03-27T01:43:51.881Z,14.10
2019-03-27T01:44:51.782Z,13.20
2019-03-27T01:46:44.731Z,13.50
2019-03-27T01:47:44.633Z,13.70
2019-03-27T01:49:48.650Z,14.10
2019-03-27T01:50:48.546Z,12.80
2019-03-27T01:52:52.553Z,14.10
2019-03-27T01:53:52.459Z,14.00
2019-03-27T01:55:56.461Z,13.20
2019-03-27T01:56:56.369Z,13.70
2019-03-27T01:59:00.371Z,14.10
2019-03-27T02:00:00.339Z,13.90
2019-03-27T02:02:04.283Z,14.40
2019-03-27T02:03:04.190Z,14.40
2019-03-27T02:05:08.196Z,14.50
2019-03-27T02:06:08.101Z,14.30
2019-03-27T02:08:12.122Z,14.70
2019-03-27T02:09:12.012Z,14.00
2019-03-27T02:11:16.010Z,16.00
2019-03-27T02:12:15.911Z,15.20
2019-03-27T02:14:19.923Z,14.90
2019-03-27T02:15:19.830Z,15.30
2019-03-27T02:17:12.770Z,15.50
2019-03-27T02:18:12.691Z,16.10
2019-03-27T02:20:16.632Z,17.00
2019-03-27T02:21:16.581Z,16.90
2019-03-27T02:23:20.531Z,16.50
2019-03-27T02:24:20.563Z,17.50
2019-03-27T02:26:24.452Z,17.40
2019-03-27T02:27:24.482Z,17.60
2019-03-27T02:29:28.437Z,16.40
2019-03-27T02:30:28.314Z,16.30
2019-03-27T02:32:32.321Z,16.70
2019-03-27T02:33:32.244Z,16.70
2019-03-27T02:35:36.234Z,16.70
2019-03-27T02:36:36.131Z,16.50
2019-03-27T02:38:40.141Z,16.20
2019-03-27T02:39:40.077Z,16.60
2019-03-27T02:41:44.050Z,16.70
2019-03-27T02:42:44.036Z,16.20
2019-03-27T02:44:47.959Z,16.40
2019-03-27T02:45:47.870Z,15.90
2019-03-27T02:47:51.969Z,16.70
2019-03-27T02:48:51.904Z,16.90
2019-03-27T02:50:55.892Z,16.10
2019-03-27T02:51:55.790Z,16.90
2019-03-27T02:53:59.752Z,16.30
2019-03-27T02:55:07.003Z,15.90
2019-03-27T02:56:52.674Z,17.00
2019-03-27T02:57:52.594Z,16.20
2019-03-27T02:58:52.663Z,16.70
2019-03-27T02:59:52.522Z,16.40
2019-03-27T03:00:52.567Z,17.00
2019-03-27T03:01:52.460Z,16.20
2019-03-27T03:02:52.477Z,16.40
2019-03-27T03:03:52.413Z,16.70
2019-03-27T03:04:52.502Z,15.90
2019-03-27T03:05:52.357Z,17.30
2019-03-27T03:06:52.403Z,16.00
2019-03-27T03:07:52.295Z,15.50
2019-03-27T03:08:52.318Z,15.60
2019-03-27T03:09:52.234Z,16.80
2019-03-27T03:10:52.205Z,16.30
2019-03-27T03:11:52.172Z,16.00
2019-03-27T03:12:52.227Z,16.30
2019-03-27T03:13:52.112Z,14.40
2019-03-27T03:14:52.133Z,16.30
2019-03-27T03:15:52.064Z,15.90
2019-03-27T03:16:52.041Z,15.80
2019-03-27T03:17:52.004Z,15.90
2019-03-27T03:18:52.065Z,15.60
2019-03-27T03:19:51.943Z,15.40
2019-03-27T03:20:51.973Z,15.40
2019-03-27T03:21:51.882Z,15.50
2019-03-27T03:22:51.863Z,15.70
2019-03-27T03:23:51.881Z,15.00
2019-03-27T03:24:51.791Z,15.40
2019-03-27T03:25:51.792Z,15.60
2019-03-27T03:26:51.797Z,16.10
2019-03-27T03:27:51.812Z,17.20
2019-03-27T03:28:51.685Z,16.20
2019-03-27T03:29:51.722Z,15.50
2019-03-27T03:30:51.631Z,15.80
2019-03-27T03:31:51.637Z,16.90
2019-03-27T03:32:51.642Z,16.60
2019-03-27T03:33:51.555Z,18.30
2019-03-27T03:34:51.563Z,15.80
2019-03-27T03:35:51.478Z,16.40
2019-03-27T03:36:51.552Z,15.40
2019-03-27T03:37:51.443Z,17.50
2019-03-27T03:38:51.465Z,18.30
2019-03-27T03:39:51.377Z,18.00
2019-03-27T03:40:51.373Z,17.50
2019-03-27T03:41:51.302Z,16.10
2019-03-27T03:42:51.391Z,16.60
2019-03-27T03:43:51.297Z,15.90
2019-03-27T03:44:51.231Z,16.80
2019-03-27T03:45:51.347Z,15.90
2019-03-27T03:46:59.402Z,16.70
2019-03-27T03:47:51.134Z,15.30
2019-03-27T03:48:51.135Z,14.50
2019-03-27T03:49:51.077Z,15.00
2019-03-27T03:50:51.135Z,16.30
2019-03-27T03:51:51.017Z,15.50
2019-03-27T03:52:51.053Z,15.60
2019-03-27T03:53:50.952Z,14.90
2019-03-27T03:54:50.922Z,14.90
2019-03-27T03:55:50.911Z,14.60
2019-03-27T03:56:50.967Z,14.60
2019-03-27T03:57:50.848Z,18.90
2019-03-27T03:58:50.884Z,15.90
2019-03-27T03:59:50.817Z,17.20
2019-03-27T04:00:50.744Z,15.90
2019-03-27T04:01:50.723Z,15.90
2019-03-27T04:02:50.806Z,18.10
2019-03-27T04:03:50.667Z,15.20
2019-03-27T04:04:50.719Z,16.50
2019-03-27T04:05:50.601Z,18.10
2019-03-27T04:06:50.622Z,16.70
2019-03-27T04:07:50.543Z,17.90
2019-03-27T04:08:50.640Z,17.40
2019-03-27T04:09:50.482Z,17.60
2019-03-27T04:10:50.560Z,17.30
2019-03-27T04:11:50.541Z,17.60
2019-03-27T04:12:50.395Z,17.10
2019-03-27T04:13:50.550Z,16.20
2019-03-27T04:14:50.344Z,18.40
2019-03-27T04:15:50.374Z,16.60
2019-03-27T04:16:50.294Z,16.20
2019-03-27T04:17:50.405Z,17.20
2019-03-27T04:18:50.221Z,17.10
2019-03-27T04:19:50.292Z,18.80
2019-03-27T04:20:50.163Z,16.00
2019-03-27T04:21:50.208Z,17.40
2019-03-27T04:22:50.215Z,17.60
2019-03-27T04:23:50.145Z,17.70
2019-03-27T04:24:50.114Z,17.40
2019-03-27T04:26:10.762Z,18.40
2019-03-27T04:26:49.983Z,18.90
2019-03-27T04:27:50.031Z,18.90
2019-03-27T04:28:49.923Z,19.10
2019-03-27T04:29:49.953Z,18.50
2019-03-27T04:30:49.875Z,17.10
2019-03-27T04:31:49.973Z,19.10
2019-03-27T04:32:49.813Z,17.80
2019-03-27T04:33:49.785Z,17.80
2019-03-27T04:34:49.784Z,18.40
2019-03-27T04:35:49.775Z,16.90
2019-03-27T04:36:49.693Z,18.40
2019-03-27T04:37:49.684Z,17.20
2019-03-27T04:38:49.631Z,16.70
2019-03-27T04:39:49.603Z,17.10
2019-03-27T04:40:49.603Z,17.20
2019-03-27T04:41:49.543Z,16.90
2019-03-27T04:42:49.613Z,16.70
2019-03-27T04:43:49.483Z,17.60
2019-03-27T04:44:49.457Z,16.80
2019-03-27T04:45:49.424Z,17.60
2019-03-27T04:46:49.457Z,16.70
2019-03-27T04:47:49.366Z,15.90
2019-03-27T04:48:49.454Z,17.30
2019-03-27T04:49:49.302Z,16.70
2019-03-27T04:50:49.284Z,16.90
2019-03-27T04:51:49.263Z,17.50
2019-03-27T04:52:49.272Z,16.70
2019-03-27T04:53:49.192Z,17.80
2019-03-27T04:54:49.184Z,16.60
2019-03-27T04:55:49.132Z,16.40
2019-03-27T04:56:49.195Z,17.10
2019-03-27T04:57:49.073Z,17.00
2019-03-27T04:58:49.107Z,17.90
2019-03-27T04:59:49.012Z,18.80
2019-03-27T05:00:49.013Z,17.60
2019-03-27T05:01:48.958Z,17.50
2019-03-27T05:02:49.022Z,18.30
2019-03-27T05:03:48.902Z,17.60
2019-03-27T05:04:48.944Z,18.10
2019-03-27T05:05:48.832Z,18.60
2019-03-27T05:06:48.846Z,19.20
2019-03-27T05:07:48.793Z,18.90
2019-03-27T05:08:48.866Z,20.90
2019-03-27T05:09:48.724Z,19.40
2019-03-27T05:10:48.776Z,20.30
2019-03-27T05:11:48.668Z,19.20
2019-03-27T05:12:48.637Z,19.20
2019-03-27T05:13:48.612Z,20.30
2019-03-27T05:14:48.593Z,21.00
2019-03-27T05:15:48.541Z,20.20
2019-03-27T05:16:48.603Z,21.20
2019-03-27T05:17:48.483Z,20.90
2019-03-27T05:18:48.452Z,20.50
2019-03-27T05:19:48.533Z,21.30
2019-03-27T05:20:48.393Z,21.40
2019-03-27T05:21:48.434Z,20.60
2019-03-27T05:22:48.334Z,20.90
2019-03-27T05:23:48.311Z,19.90
2019-03-27T05:24:48.282Z,20.50
2019-03-27T05:25:48.352Z,19.50
2019-03-27T05:26:48.233Z,20.90
2019-03-27T05:27:48.303Z,20.20
2019-03-27T05:28:48.163Z,20.60
2019-03-27T05:29:48.131Z,22.50
2019-03-27T05:30:48.172Z,22.00
2019-03-27T05:31:48.071Z,23.20
2019-03-27T05:32:48.094Z,22.20
2019-03-27T05:33:48.013Z,21.70
2019-03-27T05:34:47.973Z,21.50
2019-03-27T05:35:47.969Z,23.50
2019-03-27T05:36:48.023Z,23.90
2019-03-27T05:37:47.892Z,24.80
2019-03-27T05:38:47.933Z,23.50
2019-03-27T05:39:47.836Z,24.20
2019-03-27T05:40:47.815Z,24.20
2019-03-27T05:41:47.842Z,24.20
2019-03-27T05:42:59.959Z,24.50
2019-03-27T05:43:47.723Z,25.60
2019-03-27T05:44:47.752Z,25.00
2019-03-27T05:45:47.663Z,26.10
2019-03-27T05:46:47.661Z,26.10
2019-03-27T05:47:59.009Z,25.80
2019-03-27T05:48:47.571Z,25.60
2019-03-27T05:49:47.583Z,25.10
2019-03-27T05:50:47.513Z,25.70
2019-03-27T05:51:47.493Z,26.20
2019-03-27T05:52:47.452Z,25.60
2019-03-27T05:53:47.502Z,26.10
2019-03-27T05:54:47.403Z,25.50
2019-03-27T05:55:47.465Z,24.80
2019-03-27T05:56:47.332Z,25.40
2019-03-27T05:57:47.334Z,24.50
2019-03-27T05:58:47.280Z,24.90
2019-03-27T05:59:47.333Z,24.20
2019-03-27T06:00:47.216Z,24.20
2019-03-27T06:01:47.247Z,22.90
2019-03-27T06:02:47.175Z,23.70
2019-03-27T06:03:47.133Z,23.10
2019-03-27T06:04:47.212Z,22.60
2019-03-27T06:05:47.073Z,23.30
2019-03-27T06:06:47.102Z,23.70
2019-03-27T06:07:47.010Z,23.40
2019-03-27T06:08:47.044Z,24.20
2019-03-27T06:09:47.020Z,21.90
2019-03-27T06:10:46.925Z,23.60
2019-03-27T06:11:47.033Z,23.30
2019-03-27T06:12:46.862Z,24.20
2019-03-27T06:13:46.844Z,25.10
2019-03-27T06:14:46.814Z,24.10
2019-03-27T06:15:46.860Z,24.50
2019-03-27T06:16:46.759Z,25.50
2019-03-27T06:17:46.873Z,24.50
2019-03-27T06:18:46.693Z,24.20
2019-03-27T06:19:46.663Z,24.10
2019-03-27T06:20:46.682Z,25.50
2019-03-27T06:21:46.606Z,25.20
2019-03-27T06:22:46.710Z,25.10
2019-03-27T06:23:46.549Z,25.00
2019-03-27T06:24:46.509Z,25.20
2019-03-27T06:25:46.506Z,26.20
2019-03-27T06:26:46.527Z,25.70
2019-03-27T06:27:46.431Z,26.60
2019-03-27T06:28:46.539Z,25.60
2019-03-27T06:29:46.373Z,25.70
2019-03-27T06:30:46.333Z,25.60
2019-03-27T06:31:46.316Z,25.90
2019-03-27T06:32:46.365Z,25.20
2019-03-27T06:33:46.252Z,24.20
2019-03-27T06:34:46.372Z,25.10
2019-03-27T06:35:46.196Z,26.50
2019-03-27T06:36:46.281Z,26.80
2019-03-27T06:37:46.133Z,26.70
2019-03-27T06:38:46.203Z,26.10
2019-03-27T06:39:46.085Z,27.10
2019-03-27T06:40:46.218Z,28.70
2019-03-27T06:41:46.025Z,28.20
2019-03-27T06:42:46.121Z,28.30
2019-03-27T06:43:45.962Z,28.20
2019-03-27T06:44:46.045Z,28.50
2019-03-27T06:45:45.908Z,27.70
2019-03-27T06:46:45.953Z,26.50
2019-03-27T06:47:45.846Z,26.30
2019-03-27T06:48:45.964Z,26.30
2019-03-27T06:49:45.781Z,27.90
2019-03-27T06:50:45.874Z,26.80
2019-03-27T06:51:45.746Z,27.70
2019-03-27T06:52:45.709Z,27.20
2019-03-27T06:53:45.794Z,27.80
2019-03-27T06:54:45.650Z,28.50
2019-03-27T06:55:45.702Z,27.70
2019-03-27T06:56:45.584Z,28.00
2019-03-27T06:57:45.723Z,27.40
2019-03-27T06:58:54.637Z,26.00
2019-03-27T06:59:45.503Z,27.20
2019-03-27T07:00:46.573Z,27.60
2019-03-27T07:01:45.456Z,27.50
2019-03-27T07:02:45.555Z,28.30
2019-03-27T07:03:45.566Z,26.70
2019-03-27T07:04:45.364Z,27.30
2019-03-27T07:05:45.472Z,26.90
2019-03-27T07:06:45.292Z,26.50
2019-03-27T07:07:45.394Z,28.10
2019-03-27T07:08:45.242Z,27.10
2019-03-27T07:09:45.233Z,26.80
2019-03-27T07:10:45.305Z,27.00
2019-03-27T07:11:45.223Z,28.20
2019-03-27T07:12:45.314Z,27.60
2019-03-27T07:13:45.094Z,27.30
2019-03-27T07:14:45.076Z,28.90
2019-03-27T07:15:45.044Z,28.10
2019-03-27T07:16:45.150Z,28.10
2019-03-27T07:17:44.984Z,28.60
2019-03-27T07:18:45.052Z,28.40
2019-03-27T07:19:44.933Z,28.30
2019-03-27T07:20:44.894Z,27.80
2019-03-27T07:21:44.984Z,28.00
2019-03-27T07:22:44.832Z,28.80
2019-03-27T07:23:44.994Z,28.00
2019-03-27T07:24:44.772Z,27.20
2019-03-27T07:25:44.745Z,27.50
2019-03-27T07:26:44.721Z,27.10
2019-03-27T07:27:44.802Z,26.40
2019-03-27T07:28:44.662Z,26.70
2019-03-27T07:29:44.823Z,27.20
2019-03-27T07:30:44.605Z,27.80
2019-03-27T07:31:44.575Z,26.90
2019-03-27T07:32:44.741Z,26.80
2019-03-27T07:33:44.523Z,25.20
2019-03-27T07:34:44.664Z,26.10
2019-03-27T07:35:44.469Z,26.60
2019-03-27T07:36:44.569Z,24.80
2019-03-27T07:37:44.405Z,24.40
2019-03-27T07:38:44.581Z,24.00
2019-03-27T07:39:44.354Z,24.00
2019-03-27T07:40:44.487Z,22.70
2019-03-27T07:41:44.295Z,23.60
2019-03-27T07:42:44.263Z,24.00
2019-03-27T07:43:44.233Z,23.00
2019-03-27T07:44:44.412Z,23.30
2019-03-27T07:45:44.181Z,23.80
2019-03-27T07:46:44.323Z,23.70
2019-03-27T07:47:44.122Z,23.80
2019-03-27T07:48:53.930Z,24.10
2019-03-27T07:49:44.118Z,24.50
2019-03-27T07:50:44.252Z,23.90
2019-03-27T07:51:44.014Z,24.50
2019-03-27T07:52:44.063Z,25.20
2019-03-27T07:53:44.062Z,25.20
2019-03-27T07:54:43.922Z,26.50
2019-03-27T07:55:43.983Z,25.80
2019-03-27T07:56:43.874Z,25.90
2019-03-27T07:57:43.892Z,25.10
2019-03-27T07:58:43.817Z,23.80
2019-03-27T07:59:43.784Z,25.70
2019-03-27T08:00:43.757Z,25.00
2019-03-27T08:01:43.812Z,25.40
2019-03-27T08:02:43.713Z,24.90
2019-03-27T08:03:43.734Z,24.70
2019-03-27T08:04:43.641Z,24.80
2019-03-27T08:05:43.755Z,24.90
2019-03-27T08:06:43.592Z,24.40
2019-03-27T08:07:43.655Z,24.40
2019-03-27T08:08:43.532Z,22.90
2019-03-27T08:09:43.562Z,23.80
2019-03-27T08:10:43.575Z,24.50
2019-03-27T08:11:43.454Z,26.00
2019-03-27T08:12:43.485Z,24.40
2019-03-27T08:13:43.392Z,23.80
2019-03-27T08:14:43.520Z,23.20
2019-03-27T08:15:43.335Z,22.50
2019-03-27T08:16:43.314Z,22.90
2019-03-27T08:17:43.423Z,23.20
2019-03-27T08:18:43.252Z,23.30
2019-03-27T08:19:43.335Z,22.70
2019-03-27T08:20:43.215Z,23.60
2019-03-27T08:21:43.175Z,23.30
2019-03-27T08:22:43.259Z,23.60
2019-03-27T08:23:43.123Z,24.30
2019-03-27T08:24:43.162Z,21.20
2019-03-27T08:25:43.062Z,21.50
2019-03-27T08:26:43.180Z,22.00
2019-03-27T08:27:43.012Z,21.50
2019-03-27T08:28:43.085Z,18.90
2019-03-27T08:29:42.942Z,18.20
2019-03-27T08:30:43.003Z,18.10
2019-03-27T08:31:42.891Z,18.10
2019-03-27T08:32:42.862Z,19.60
2019-03-27T08:33:42.853Z,19.50
2019-03-27T08:34:42.920Z,19.90
2019-03-27T08:35:42.783Z,19.90
2019-03-27T08:36:42.888Z,19.70
2019-03-27T08:37:42.731Z,20.30
2019-03-27T08:38:42.715Z,20.80
2019-03-27T08:39:42.762Z,20.00
2019-03-27T08:40:42.654Z,19.40
2019-03-27T08:41:42.772Z,19.90
2019-03-27T08:42:42.602Z,18.70
2019-03-27T08:43:42.572Z,18.80
2019-03-27T08:44:42.542Z,18.50
2019-03-27T08:45:42.591Z,16.90
2019-03-27T08:46:42.493Z,17.70
2019-03-27T08:47:42.614Z,17.10
2019-03-27T08:48:42.434Z,16.60
2019-03-27T08:49:42.426Z,15.90
2019-03-27T08:50:42.524Z,15.00
2019-03-27T08:51:42.351Z,14.60
2019-03-27T08:52:43.473Z,12.30
2019-03-27T08:53:42.304Z,13.30
2019-03-27T08:54:42.273Z,14.50
2019-03-27T08:57:14.031Z,10.90
2019-03-27T08:58:13.932Z,10.30
2019-03-27T09:00:21.176Z,9.80
2019-03-27T09:01:17.841Z,10.10
2019-03-27T09:03:21.856Z,11.00
2019-03-27T09:04:21.751Z,10.70
2019-03-27T09:06:33.698Z,9.70
2019-03-27T09:07:26.183Z,10.10
2019-03-27T09:09:30.171Z,9.30
2019-03-27T09:10:30.093Z,9.40
2019-03-27T09:12:34.081Z,10.40
2019-03-27T09:13:34.002Z,10.20
2019-03-27T09:15:38.002Z,8.50
2019-03-27T09:16:37.901Z,8.30
2019-03-27T09:18:41.923Z,9.40
2019-03-27T09:19:41.827Z,10.00
2019-03-27T09:21:45.831Z,10.30
2019-03-27T09:22:45.795Z,10.80
2019-03-27T09:24:49.721Z,10.40
2019-03-27T09:25:49.630Z,10.30
2019-03-27T09:27:53.630Z,9.40
2019-03-27T09:28:53.552Z,9.60
2019-03-27T09:30:57.552Z,9.30
2019-03-27T09:31:57.463Z,10.10
2019-03-27T09:34:01.404Z,9.60
2019-03-27T09:35:01.446Z,10.40
2019-03-27T09:36:54.408Z,10.40
2019-03-27T09:37:54.221Z,10.00
2019-03-27T09:39:58.210Z,10.40
2019-03-27T09:40:58.142Z,9.80
2019-03-27T09:43:02.142Z,10.30
2019-03-27T09:44:02.041Z,9.80
2019-03-27T09:46:06.030Z,10.10
2019-03-27T09:47:05.974Z,10.10
2019-03-27T09:49:10.052Z,10.80
2019-03-27T09:50:09.955Z,10.40
2019-03-27T09:52:13.962Z,8.80
2019-03-27T09:53:13.872Z,8.50
2019-03-27T09:55:17.871Z,9.40
2019-03-27T09:56:19.395Z,9.40
2019-03-27T09:58:21.882Z,8.90
2019-03-27T09:59:21.791Z,9.20
2019-03-27T10:01:25.791Z,8.50
2019-03-27T10:02:25.703Z,9.50
2019-03-27T10:04:29.701Z,10.20
2019-03-27T10:05:29.614Z,10.80
2019-03-27T10:07:33.560Z,10.30
2019-03-27T10:08:33.583Z,9.50
2019-03-27T10:10:37.621Z,10.60
2019-03-27T10:11:37.532Z,10.60
2019-03-27T10:13:41.645Z,10.80
2019-03-27T10:14:41.541Z,10.00
2019-03-27T10:16:34.503Z,10.00
2019-03-27T10:17:34.405Z,10.10
2019-03-27T10:19:38.400Z,10.60
2019-03-27T10:20:38.303Z,10.20
2019-03-27T10:22:42.338Z,10.20
2019-03-27T10:23:42.222Z,9.60
2019-03-27T10:25:46.313Z,8.90
2019-03-27T10:26:46.233Z,8.10
2019-03-27T10:28:39.386Z,7.80
2019-03-27T10:29:39.443Z,7.50
2019-03-27T10:31:43.493Z,5.70
2019-03-27T10:32:43.282Z,4.70
2019-03-27T10:34:47.321Z,3.50
2019-03-27T10:35:47.306Z,2.50
2019-03-27T10:37:40.451Z,3.20
2019-03-27T10:38:41.900Z,3.10
2019-03-27T10:40:44.400Z,3.10
2019-03-27T10:41:44.412Z,4.00
2019-03-27T10:43:37.547Z,5.30
2019-03-27T10:44:37.441Z,5.50
2019-03-27T10:46:30.337Z,5.70
2019-03-27T10:47:30.291Z,5.50
2019-03-27T10:49:34.664Z,5.50
2019-03-27T10:50:34.312Z,5.50
2019-03-27T10:52:38.319Z,6.70
2019-03-27T10:53:38.214Z,6.20
2019-03-27T10:55:42.220Z,6.40
2019-03-27T10:56:42.129Z,6.30
2019-03-27T10:58:46.133Z,5.90
2019-03-27T10:59:46.042Z,6.50
2019-03-27T11:01:50.048Z,6.00
2019-03-27T11:02:49.951Z,6.20
2019-03-27T11:04:53.990Z,5.90
2019-03-27T11:05:54.030Z,5.60
2019-03-27T11:07:57.975Z,5.20
2019-03-27T11:08:57.876Z,4.90
2019-03-27T11:11:01.889Z,4.40
2019-03-27T11:12:01.790Z,4.30
2019-03-27T11:14:05.800Z,3.90
2019-03-27T11:15:05.768Z,4.10
2019-03-27T11:16:58.650Z,4.10
2019-03-27T11:17:58.549Z,3.80
2019-03-27T11:20:02.560Z,4.30
2019-03-27T11:21:02.472Z,4.10
2019-03-27T11:23:06.492Z,4.50
2019-03-27T11:24:06.379Z,4.40
2019-03-27T11:26:10.388Z,4.30
2019-03-27T11:27:10.292Z,4.80
2019-03-27T11:29:14.301Z,4.60
2019-03-27T11:30:14.212Z,4.40
2019-03-27T11:32:18.184Z,4.80
2019-03-27T11:33:18.179Z,4.70
2019-03-27T11:35:22.255Z,4.80
2019-03-27T11:36:22.129Z,4.60
2019-03-27T11:38:26.276Z,4.90
2019-03-27T11:39:26.141Z,3.90
2019-03-27T11:41:30.249Z,4.40
2019-03-27T11:42:30.161Z,4.40
2019-03-27T11:44:34.208Z,5.30
2019-03-27T11:45:34.073Z,4.90
2019-03-27T11:47:38.081Z,5.00
2019-03-27T11:48:38.051Z,5.00
2019-03-27T11:50:45.060Z,8.70
2019-03-27T11:51:41.901Z,7.00
2019-03-27T11:53:45.902Z,5.10
2019-03-27T11:54:45.812Z,5.40
2019-03-27T11:56:38.761Z,6.10
2019-03-27T11:57:38.671Z,14.10
2019-03-27T11:59:53.446Z,5.40
2019-03-27T12:00:53.962Z,4.80
2019-03-27T12:02:46.591Z,5.10
2019-03-27T12:03:46.491Z,5.30
2019-03-27T12:05:50.436Z,8.80
2019-03-27T12:06:50.461Z,16.90
2019-03-27T12:08:54.510Z,6.40
2019-03-27T12:09:54.411Z,5.40
2019-03-27T12:11:59.453Z,4.90
2019-03-27T12:12:58.348Z,5.10
2019-03-27T12:15:02.542Z,4.80
2019-03-27T12:16:02.341Z,4.90
2019-03-27T12:18:06.553Z,4.70
2019-03-27T12:19:06.349Z,4.50
2019-03-27T12:21:10.573Z,4.50
2019-03-27T12:22:10.371Z,4.30
2019-03-27T12:24:14.587Z,4.90
2019-03-27T12:25:14.382Z,4.90
2019-03-27T12:27:07.550Z,5.00
2019-03-27T12:28:07.517Z,5.10
2019-03-27T12:30:11.553Z,4.90
2019-03-27T12:31:11.355Z,4.70
2019-03-27T12:33:15.575Z,4.60
2019-03-27T12:34:15.377Z,4.60
2019-03-27T12:36:19.592Z,4.50
2019-03-27T12:37:19.397Z,4.50
2019-03-27T12:39:23.442Z,4.60
2019-03-27T12:40:23.402Z,4.30
2019-03-27T12:42:27.613Z,4.40
2019-03-27T12:43:27.418Z,4.30
2019-03-27T12:45:31.436Z,4.10
2019-03-27T12:46:31.342Z,4.60
2019-03-27T12:48:35.393Z,4.10
2019-03-27T12:49:35.412Z,4.30
2019-03-27T12:51:39.451Z,4.10
2019-03-27T12:52:39.362Z,4.10
2019-03-27T12:54:43.472Z,4.60
2019-03-27T12:55:43.384Z,4.20
2019-03-27T12:57:47.428Z,3.90
2019-03-27T12:58:47.404Z,4.20
2019-03-27T13:00:51.513Z,4.30
2019-03-27T13:01:51.479Z,4.60
2019-03-27T13:03:55.523Z,4.90
2019-03-27T13:04:55.423Z,5.30
2019-03-27T13:06:48.361Z,5.40
2019-03-27T13:07:50.288Z,5.50
2019-03-27T13:09:52.325Z,7.40
2019-03-27T13:10:52.332Z,7.90
2019-03-27T13:12:56.323Z,7.40
2019-03-27T13:13:56.293Z,8.40
2019-03-27T13:16:00.403Z,8.20
2019-03-27T13:17:00.312Z,8.50
2019-03-27T13:19:04.442Z,7.40
2019-03-27T13:20:04.320Z,7.10
2019-03-27T13:22:08.313Z,8.00
2019-03-27T13:23:08.231Z,7.70
2019-03-27T13:25:12.290Z,9.90
2019-03-27T13:26:12.292Z,8.50
2019-03-27T13:28:16.343Z,8.20
2019-03-27T13:29:16.251Z,7.60
2019-03-27T13:31:20.252Z,7.80
2019-03-27T13:32:20.164Z,7.70
2019-03-27T13:34:24.224Z,7.80
2019-03-27T13:35:24.173Z,7.80
2019-03-27T13:37:28.284Z,7.50
2019-03-27T13:38:28.182Z,7.30
2019-03-27T13:40:32.131Z,7.40
2019-03-27T13:41:32.102Z,7.30
2019-03-27T13:43:36.204Z,8.30
2019-03-27T13:44:37.491Z,8.10
2019-03-27T13:46:29.094Z,7.80
2019-03-27T13:47:29.005Z,7.60
2019-03-27T13:49:33.161Z,6.40
2019-03-27T13:50:33.000Z,5.90
2019-03-27T13:52:37.121Z,6.80
2019-03-27T13:53:37.022Z,7.40
2019-03-27T13:55:41.242Z,6.50
2019-03-27T13:56:41.051Z,6.00
2019-03-27T13:58:45.262Z,6.00
2019-03-27T13:59:45.053Z,5.50
2019-03-27T14:01:49.173Z,5.80
2019-03-27T14:02:49.077Z,5.70
2019-03-27T14:04:53.281Z,6.20
2019-03-27T14:05:53.085Z,5.90
2019-03-27T14:07:57.131Z,5.50
2019-03-27T14:08:57.104Z,5.40
2019-03-27T14:11:01.315Z,5.60
2019-03-27T14:12:01.112Z,5.50
2019-03-27T14:14:11.405Z,5.70
2019-03-27T14:15:05.952Z,5.20
2019-03-27T14:16:58.926Z,5.30
2019-03-27T14:17:58.802Z,5.30
2019-03-27T14:20:02.811Z,5.50
2019-03-27T14:21:02.725Z,5.40
2019-03-27T14:23:07.643Z,5.30
2019-03-27T14:24:07.610Z,5.50
2019-03-27T14:26:12.482Z,5.30
2019-03-27T14:27:12.387Z,5.20
2019-03-27T14:29:16.332Z,5.10
2019-03-27T14:30:16.313Z,5.10
2019-03-27T14:32:21.331Z,5.40
2019-03-27T14:33:20.249Z,5.00
2019-03-27T14:35:24.223Z,4.70
2019-03-27T14:36:24.129Z,5.20
2019-03-27T14:38:28.231Z,5.20
2019-03-27T14:39:28.132Z,5.40
2019-03-27T14:41:32.141Z,5.10
2019-03-27T14:42:32.070Z,5.00
2019-03-27T14:44:36.071Z,5.30
2019-03-27T14:45:35.972Z,5.10
2019-03-27T14:47:39.971Z,5.10
2019-03-27T14:48:39.882Z,5.30
2019-03-27T14:50:43.982Z,5.60
2019-03-27T14:51:43.883Z,5.30
2019-03-27T14:53:47.893Z,5.60
2019-03-27T14:54:47.801Z,5.40
2019-03-27T14:56:40.702Z,5.70
2019-03-27T14:57:47.965Z,6.40
2019-03-27T14:59:44.791Z,5.30
2019-03-27T15:00:44.600Z,5.30
2019-03-27T15:02:48.725Z,5.40
2019-03-27T15:03:48.614Z,5.70
2019-03-27T15:05:52.725Z,5.40
2019-03-27T15:06:52.619Z,6.10
2019-03-27T15:08:56.743Z,5.80
2019-03-27T15:09:56.631Z,5.40
2019-03-27T15:12:00.640Z,5.20
2019-03-27T15:13:00.552Z,5.80
2019-03-27T15:15:04.662Z,7.60
2019-03-27T15:16:04.562Z,8.50
2019-03-27T15:18:08.665Z,5.80
2019-03-27T15:19:08.631Z,6.00
2019-03-27T15:21:12.672Z,5.70
2019-03-27T15:22:22.414Z,5.80
2019-03-27T15:24:16.651Z,5.70
2019-03-27T15:25:16.612Z,6.00
2019-03-27T15:27:09.641Z,5.90
2019-03-27T15:28:09.563Z,6.30
2019-03-27T15:30:13.689Z,5.90
2019-03-27T15:31:20.264Z,6.20
2019-03-27T15:33:17.661Z,6.30
2019-03-27T15:34:17.573Z,6.50
2019-03-27T15:36:21.683Z,6.10
2019-03-27T15:37:21.584Z,5.70
2019-03-27T15:39:25.593Z,6.10
2019-03-27T15:40:25.501Z,6.20
2019-03-27T15:42:29.603Z,6.30
2019-03-27T15:43:29.511Z,6.20
2019-03-27T15:45:33.570Z,6.10
2019-03-27T15:46:33.474Z,6.60
2019-03-27T15:48:37.670Z,6.40
2019-03-27T15:49:37.488Z,6.40
2019-03-27T15:51:41.691Z,6.30
2019-03-27T15:52:41.493Z,6.90
2019-03-27T15:54:45.504Z,6.40
2019-03-27T15:55:45.415Z,6.40
2019-03-27T15:57:49.450Z,6.00
2019-03-27T15:58:49.324Z,6.50
2019-03-27T16:00:53.337Z,6.50
2019-03-27T16:01:53.241Z,10.70
2019-03-27T16:03:57.253Z,9.00
2019-03-27T16:04:57.141Z,8.00
2019-03-27T16:06:50.103Z,6.30
2019-03-27T16:07:50.017Z,6.30
2019-03-27T16:09:54.015Z,6.30
2019-03-27T16:10:53.913Z,6.30
2019-03-27T16:12:57.925Z,5.70
2019-03-27T16:13:57.826Z,6.00
2019-03-27T16:16:01.941Z,6.00
2019-03-27T16:17:13.118Z,6.40
2019-03-27T16:19:05.863Z,9.90
2019-03-27T16:20:05.764Z,6.90
2019-03-27T16:22:09.872Z,10.40
2019-03-27T16:23:09.761Z,7.30
2019-03-27T16:25:13.726Z,8.00
2019-03-27T16:26:13.684Z,9.00
2019-03-27T16:28:17.792Z,10.80
2019-03-27T16:29:17.706Z,7.20
2019-03-27T16:31:21.845Z,6.00
2019-03-27T16:32:21.614Z,6.60
2019-03-27T16:34:25.724Z,6.40
2019-03-27T16:35:25.624Z,7.00
2019-03-27T16:37:29.642Z,6.50
2019-03-27T16:38:29.544Z,6.50
2019-03-27T16:40:33.653Z,5.60
2019-03-27T16:41:33.553Z,5.40
2019-03-27T16:43:37.562Z,6.00
2019-03-27T16:44:37.471Z,5.60